Date,TemperatureHighF,TemperatureAvgF,TemperatureLowF,DewpointHighF,DewpointAvgF,DewpointLowF,HumidityHigh,HumidityAvg,HumidityLow,PressureMaxIn,PressureMinIn,WindSpeedMaxMPH,WindSpeedAvgMPH,GustSpeedMaxMPH,PrecipitationSumIn
2013-1-1,82.6,72.9,66.7,62.7,59.0,56.3,75,62,50,29.65,29.50,12,1,12,0.00
2013-1-2,84.0,71.6,62.4,66.0,61.7,56.8,83,72,47,29.54,29.44,7,0,7,0.00
2013-1-3,84.4,73.0,67.3,68.7,65.1,62.9,88,77,58,29.58,29.47,0,0,0,0.04
2013-1-4,83.3,72.2,65.1,70.6,65.8,61.2,88,81,61,29.68,29.55,0,0,0,0.00
2013-1-5,75.7,69.8,66.0,68.8,65.2,62.0,90,85,77,29.70,29.61,0,0,0,0.04
2013-1-6,83.3,72.8,64.8,71.1,66.7,61.2,92,82,65,29.64,29.51,0,0,0,0.00
2013-1-7,78.6,70.9,67.3,69.3,65.9,63.9,89,85,66,29.61,29.52,0,0,0,0.00
2013-1-8,84.6,75.8,69.6,71.9,69.1,65.5,88,80,64,29.65,29.51,0,0,0,0.00
2013-1-9,84.4,77.0,73.6,71.1,68.8,66.8,86,76,64,29.73,29.61,0,0,0,0.00
2013-1-10,82.8,76.5,73.2,67.4,65.0,62.8,77,68,52,29.75,29.63,0,0,0,0.00
2013-1-11,83.5,75.8,72.3,68.7,66.0,63.9,80,72,60,29.70,29.60,0,0,0,0.00
2013-1-12,84.6,75.0,70.5,68.6,65.4,62.2,81,72,57,29.63,29.54,0,0,0,0.00
2013-1-13,83.3,75.1,70.9,67.1,63.9,61.2,81,69,54,29.58,29.52,0,0,0,0.00
2013-1-14,84.4,74.7,68.2,65.6,62.4,58.9,75,66,53,29.62,29.56,0,0,0,0.00
2013-1-15,78.4,72.9,65.8,67.6,64.6,59.7,81,75,67,29.59,29.49,0,0,0,0.00
2013-1-16,83.5,72.7,63.7,69.5,64.8,58.6,89,77,60,29.55,29.47,0,0,0,0.00
2013-1-17,80.2,71.0,61.2,70.5,64.6,52.3,89,80,70,29.54,29.42,0,0,0,0.00
2013-1-18,71.4,63.4,52.9,58.7,51.6,43.8,74,66,54,29.68,29.54,0,0,0,0.00
2013-1-19,70.7,67.8,64.6,65.8,61.4,55.2,90,80,62,29.66,29.53,0,0,0,0.00
2013-1-20,81.7,70.4,63.7,67.8,64.5,60.8,91,82,63,29.59,29.45,0,0,0,0.00
2013-1-21,82.8,71.9,65.8,69.9,65.7,61.9,90,81,64,29.52,29.41,0,0,0,0.00
2013-1-22,78.6,68.5,62.4,62.1,57.4,51.5,87,69,52,29.66,29.45,0,0,0,0.00
2013-1-23,76.6,67.9,61.2,57.3,53.1,50.4,74,60,44,29.74,29.64,0,0,0,0.00
2013-1-24,78.4,65.8,58.3,54.5,51.4,46.3,79,61,42,29.74,29.64,0,0,0,0.00
2013-1-25,79.3,66.7,57.7,59.3,53.4,48.2,76,63,46,29.74,29.62,0,0,0,0.00
2013-1-26,79.5,67.5,59.4,59.0,56.2,50.8,84,68,48,29.70,29.61,0,0,0,0.00
2013-1-27,79.3,70.1,62.4,61.4,59.1,56.5,83,69,51,29.73,29.64,0,0,0,0.00
2013-1-28,83.1,74.7,70.2,65.0,62.2,59.3,74,66,52,29.76,29.68,0,0,0,0.00
2013-1-29,81.5,74.5,70.5,68.5,64.9,62.3,80,72,63,29.68,29.57,0,0,0,0.00
2013-1-30,84.0,74.8,70.3,66.8,63.9,61.2,83,69,56,29.57,29.41,0,0,0,0.00
2013-1-31,72.9,67.0,59.5,69.5,57.2,40.1,90,72,47,29.63,29.40,0,0,0,0.00